Darstellungsparameter: Aktuell verwendete Einstellungen:
Skalierung der Graphiken ... ?
xyx+y,   Skalierungsfaktor:      Skalierung: Modus: x, Faktor: 1
Darstellungszeitraum ... ?
Vom - - bis: - -   Zeitraum: 12.11.2010 - 13.11.2010
Min/Max/Avg-Anzeige ... ?
Zeige MMA aktuell
Zeige MMA Monat
Zeige MMA alles
Zeige --A aktuell
Zeige --A Monat
Zeige --A alles
Keine MMA-Anzeige
MMA:
Minimum Maximum Average (ber die Originaldaten)
MMA-Basis: 14.04.2020 - 16.05.2020
Quicknavigation für Darstellung... ?
Tage:      1T, 2T, 3T, 5T -1T -2T -3T -5T +1T +2T +3T +5T
Wochen: 1W, 2W, 3W -1W -2W -3W +1W +2W +3W
Monate: 1M, 3M, 6M -1M -3M -6M +1M +3M +6M
Jahre:    1J, 3J, 5J, 10J -1J -3J -5J -10J +1J +3J +5J +10J
Nutze für die Darstellung ... ?
Originaldaten oder Mittelwerte auf ...
Stundenbasis Tagesbasis Wochenbasis
Monatsbasis Jahresbasis      Datenbasis: Original-Daten
Darstellen als:
Statistik (Auto) Statistik J:M      Darstellung:
Zur Graphik,    zurück zur Übersicht aller Sensoren.
 
Tabellarische Datenbersicht: ?
 
Sensor: Nr:Datum:Temp:Abs-Feuchte:Windchill:Wind:
Aussen-T/F 1 12-11-2010 00:00:02 10 C 7.52 g/m*3 10 C 0 km/h
2 12-11-2010 00:12:02 9.7 C 7.01 g/m*3 9.7 C 0 km/h
3 12-11-2010 00:24:02 9.6 C 6.78 g/m*3 9.6 C 0 km/h
4 12-11-2010 00:36:02 10 C 6.39 g/m*3 10 C 0 km/h
5 12-11-2010 00:48:01 9.4 C 6.42 g/m*3 9.4 C 0 km/h
6 12-11-2010 01:00:01 9.5 C 6.37 g/m*3 9.5 C 0 km/h
7 12-11-2010 01:12:02 9.3 C 6.11 g/m*3 9.3 C 0 km/h
8 12-11-2010 01:24:01 10 C 6.01 g/m*3 10 C 0 km/h
9 12-11-2010 01:36:02 10.2 C 5.71 g/m*3 10.2 C 0 km/h
10 12-11-2010 01:48:01 10.2 C 5.42 g/m*3 10.2 C 0 km/h
11 12-11-2010 02:00:01 9.7 C 5.44 g/m*3 9.7 C 0 km/h
12 12-11-2010 02:12:02 9.4 C 5.61 g/m*3 9.4 C 0 km/h
13 12-11-2010 02:24:01 10.2 C 5.71 g/m*3 10.2 C 0 km/h
14 12-11-2010 02:36:02 10.2 C 5.8 g/m*3 10.2 C 0 km/h
15 12-11-2010 02:49:03 9.9 C 5.6 g/m*3 9.9 C 0 km/h
16 12-11-2010 03:01:03 9.6 C 5.77 g/m*3 9.6 C 0 km/h
17 12-11-2010 03:13:04 9.6 C 5.86 g/m*3 9.6 C 0 km/h
18 12-11-2010 03:25:04 9.3 C 5.75 g/m*3 9.3 C 0 km/h
19 12-11-2010 03:37:02 9.6 C 5.86 g/m*3 9.6 C 0 km/h
20 12-11-2010 03:49:02 9.9 C 5.79 g/m*3 9.9 C 0 km/h
21 12-11-2010 04:01:02 9.9 C 5.7 g/m*3 9.9 C 0 km/h
22 12-11-2010 04:13:02 10.1 C 5.48 g/m*3 10.1 C 0 km/h
23 12-11-2010 04:25:01 9.8 C 5.57 g/m*3 9.8 C 0 km/h
24 12-11-2010 04:37:02 9.5 C 5.55 g/m*3 9.5 C 0 km/h
25 12-11-2010 04:49:02 9.7 C 5.72 g/m*3 9.7 C 0 km/h
Sensor: Nr:Datum:Temp:Abs-Feuchte:Windchill:Wind:
Aussen-T/F 26 12-11-2010 05:01:02 9.9 C 5.79 g/m*3 9.9 C 0 km/h
27 12-11-2010 05:13:02 9.5 C 5.73 g/m*3 9.5 C 0 km/h
28 12-11-2010 05:25:02 9.8 C 5.85 g/m*3 9.8 C 0 km/h
29 12-11-2010 05:37:02 10.2 C 5.71 g/m*3 10.2 C 0 km/h
30 12-11-2010 05:49:01 10.3 C 5.75 g/m*3 10.3 C 0 km/h
31 12-11-2010 06:01:02 10.6 C 5.66 g/m*3 10.6 C 0 km/h
32 12-11-2010 06:13:02 10.7 C 5.7 g/m*3 10.7 C 0 km/h
33 12-11-2010 06:25:02 10.6 C 5.76 g/m*3 10.6 C 0 km/h
34 12-11-2010 06:37:01 10.6 C 5.86 g/m*3 10.6 C 0 km/h
35 12-11-2010 06:49:02 10.6 C 5.86 g/m*3 10.6 C 0 km/h
36 12-11-2010 07:01:01 10.7 C 5.89 g/m*3 10.7 C 0 km/h
37 12-11-2010 07:13:01 10.5 C 5.82 g/m*3 10.5 C 0 km/h
38 12-11-2010 07:25:02 10.7 C 5.8 g/m*3 10.7 C 0 km/h
39 12-11-2010 07:37:01 10.5 C 5.72 g/m*3 10.5 C 0 km/h
40 12-11-2010 07:49:02 10.7 C 5.8 g/m*3 10.7 C 0 km/h
41 12-11-2010 08:01:01 10.7 C 5.8 g/m*3 10.7 C 0 km/h
42 12-11-2010 08:13:01 10.6 C 5.86 g/m*3 10.6 C 0 km/h
43 12-11-2010 08:25:02 10.8 C 5.83 g/m*3 10.8 C 0 km/h
44 12-11-2010 08:37:02 10.7 C 5.8 g/m*3 10.7 C 0 km/h
45 12-11-2010 08:49:01 10.7 C 5.8 g/m*3 10.7 C 0 km/h
46 12-11-2010 09:01:02 10.7 C 5.8 g/m*3 10.7 C 0 km/h
47 12-11-2010 09:13:02 11 C 5.81 g/m*3 11 C 0 km/h
48 12-11-2010 09:25:01 10.8 C 5.83 g/m*3 10.8 C 0 km/h
49 12-11-2010 09:37:01 10.8 C 5.93 g/m*3 10.8 C 0 km/h
50 12-11-2010 09:49:01 10.9 C 5.87 g/m*3 10.9 C 0 km/h
Sensor: Nr:Datum:Temp:Abs-Feuchte:Windchill:Wind:
Aussen-T/F 51 12-11-2010 10:01:02 10.1 C 6.05 g/m*3 10.1 C 0 km/h
52 12-11-2010 10:13:02 10.5 C 6.11 g/m*3 10.5 C 0 km/h
53 12-11-2010 10:25:01 10.8 C 6.23 g/m*3 10.8 C 0 km/h
54 12-11-2010 10:37:01 11 C 6.11 g/m*3 11 C 0 km/h
55 12-11-2010 10:49:01 11.1 C 6.04 g/m*3 11.1 C 0 km/h
56 12-11-2010 11:01:02 11.2 C 6.08 g/m*3 11.2 C 0 km/h
57 12-11-2010 11:13:02 11.1 C 6.14 g/m*3 11.1 C 0 km/h
58 12-11-2010 11:25:01 11.4 C 6.16 g/m*3 11.4 C 0 km/h
59 12-11-2010 11:37:01 11.6 C 6.03 g/m*3 11.6 C 0 km/h
60 12-11-2010 11:49:01 11.8 C 6 g/m*3 11.8 C 0 km/h
61 12-11-2010 12:01:01 11.9 C 5.93 g/m*3 11.9 C 0 km/h
62 12-11-2010 12:13:01 12.1 C 5.79 g/m*3 12.1 C 0 km/h
63 12-11-2010 12:25:02 12.1 C 5.79 g/m*3 12.1 C 0 km/h
64 12-11-2010 12:37:01 11.7 C 5.86 g/m*3 11.7 C 0 km/h
65 12-11-2010 12:49:02 11.6 C 6.55 g/m*3 11.6 C 0 km/h
66 12-11-2010 13:01:02 11.7 C 6.28 g/m*3 11.7 C 0 km/h
67 12-11-2010 13:13:02 12 C 6.18 g/m*3 12 C 0 km/h
68 12-11-2010 13:25:02 11.8 C 6.1 g/m*3 11.8 C 0 km/h
69 12-11-2010 13:37:01 11.4 C 6.36 g/m*3 11.4 C 0 km/h
70 12-11-2010 13:49:02 11.3 C 6.53 g/m*3 11.3 C 0 km/h
71 12-11-2010 14:01:01 11.7 C 6.48 g/m*3 11.7 C 0 km/h
72 12-11-2010 14:13:01 11.6 C 6.55 g/m*3 11.6 C 0 km/h
73 12-11-2010 14:25:02 11.6 C 6.55 g/m*3 11.6 C 0 km/h
74 12-11-2010 14:37:02 11.6 C 6.55 g/m*3 11.6 C 0 km/h
75 12-11-2010 14:49:02 11.5 C 6.61 g/m*3 11.5 C 0 km/h
Sensor: Nr:Datum:Temp:Abs-Feuchte:Windchill:Wind:
Aussen-T/F 76 12-11-2010 15:01:02 11.5 C 6.61 g/m*3 11.5 C 0 km/h
77 12-11-2010 15:13:02 11.5 C 6.61 g/m*3 11.5 C 0 km/h
78 12-11-2010 15:25:02 11.5 C 6.51 g/m*3 11.5 C 0 km/h
79 12-11-2010 15:37:02 11.8 C 6.53 g/m*3 11.8 C 0 km/h
80 12-11-2010 15:49:01 11.7 C 6.59 g/m*3 11.7 C 0 km/h
81 12-11-2010 16:01:02 11.7 C 6.59 g/m*3 11.7 C 0 km/h
82 12-11-2010 16:13:02 11.5 C 6.51 g/m*3 11.5 C 0 km/h
83 12-11-2010 16:25:01 11.5 C 6.82 g/m*3 11.5 C 0 km/h
84 12-11-2010 16:37:02 11.7 C 6.9 g/m*3 11.7 C 0 km/h
85 12-11-2010 16:49:02 11.3 C 6.83 g/m*3 11.3 C 0 km/h
86 12-11-2010 17:01:02 11.1 C 6.95 g/m*3 11.1 C 0 km/h
87 12-11-2010 17:13:03 11 C 7.11 g/m*3 11 C 0 km/h
88 12-11-2010 17:25:01 11.3 C 7.34 g/m*3 11.3 C 0 km/h
89 12-11-2010 17:37:02 11.2 C 7.3 g/m*3 11.2 C 0 km/h
90 12-11-2010 17:49:01 11.2 C 7.3 g/m*3 11.2 C 0 km/h
91 12-11-2010 18:01:02 10.8 C 7.41 g/m*3 10.8 C 0 km/h
92 12-11-2010 18:13:02 10.6 C 7.61 g/m*3 10.6 C 0 km/h
93 12-11-2010 18:25:02 10.5 C 7.86 g/m*3 10.5 C 0 km/h
94 12-11-2010 18:37:02 10.3 C 7.85 g/m*3 10.3 C 0 km/h
95 12-11-2010 18:49:02 10.2 C 7.9 g/m*3 10.2 C 0 km/h
96 12-11-2010 19:01:02 10.5 C 8.15 g/m*3 10.5 C 0 km/h
97 12-11-2010 19:13:02 10.2 C 8.09 g/m*3 10.2 C 0 km/h
98 12-11-2010 19:25:02 10.3 C 8.24 g/m*3 10.3 C 0 km/h
99 12-11-2010 19:37:01 10.6 C 8.39 g/m*3 10.6 C 0 km/h
100 12-11-2010 19:49:02 11 C 8.61 g/m*3 11 C 0 km/h
Sensor: Nr:Datum:Temp:Abs-Feuchte:Windchill:Wind:
Aussen-T/F 101 12-11-2010 20:01:02 11.3 C 8.67 g/m*3 11.3 C 0 km/h
102 12-11-2010 20:13:02 11.6 C 8.83 g/m*3 11.6 C 0 km/h
103 12-11-2010 20:25:02 11.5 C 8.68 g/m*3 11.5 C 0 km/h
104 12-11-2010 20:37:02 11.5 C 8.78 g/m*3 11.5 C 0 km/h
105 12-11-2010 20:49:01 11.7 C 8.89 g/m*3 11.7 C 0 km/h
106 12-11-2010 21:01:02 11.9 C 9.11 g/m*3 11.9 C 0 km/h
107 12-11-2010 21:13:02 11.8 C 9.05 g/m*3 11.8 C 0 km/h
108 12-11-2010 21:25:02 11.8 C 9.16 g/m*3 11.8 C 0 km/h
109 12-11-2010 21:37:02 12.5 C 9.46 g/m*3 12.5 C 0 km/h
110 12-11-2010 21:49:02 12.8 C 9.63 g/m*3 12.8 C 0 km/h
111 12-11-2010 22:01:02 12.8 C 9.41 g/m*3 12.8 C 0 km/h
112 12-11-2010 22:13:02 13.2 C 9.42 g/m*3 13.2 C 0 km/h
113 12-11-2010 22:25:02 13.4 C 9.3 g/m*3 13.4 C 0 km/h
114 12-11-2010 22:37:02 13.4 C 8.95 g/m*3 13.4 C 0 km/h
115 12-11-2010 22:49:02 13.7 C 9 g/m*3 13.7 C 0 km/h
116 12-11-2010 23:01:02 13.7 C 8.76 g/m*3 13.7 C 0 km/h
117 12-11-2010 23:13:02 13.8 C 8.82 g/m*3 13.8 C 0 km/h
118 12-11-2010 23:25:02 13.8 C 8.7 g/m*3 13.8 C 0 km/h
119 12-11-2010 23:37:02 14 C 8.56 g/m*3 14 C 0 km/h
120 12-11-2010 23:49:02 14.1 C 8.62 g/m*3 14.1 C 0 km/h
121 13-11-2010 00:01:02 14 C 8.68 g/m*3 14 C 0 km/h
122 13-11-2010 00:13:02 13.9 C 8.75 g/m*3 13.9 C 0 km/h
123 13-11-2010 00:25:02 13.8 C 8.94 g/m*3 13.8 C 0 km/h
124 13-11-2010 00:37:03 13.6 C 8.94 g/m*3 13.6 C 0 km/h
125 13-11-2010 00:49:02 13.8 C 8.94 g/m*3 13.8 C 0 km/h
Sensor: Nr:Datum:Temp:Abs-Feuchte:Windchill:Wind:
Aussen-T/F 126 13-11-2010 01:01:02 13.8 C 9.06 g/m*3 13.8 C 0 km/h
127 13-11-2010 01:13:02 13.8 C 9.17 g/m*3 13.8 C 0 km/h
128 13-11-2010 01:25:02 14 C 9.05 g/m*3 14 C 0 km/h
129 13-11-2010 01:37:02 14 C 8.93 g/m*3 14 C 0 km/h
130 13-11-2010 01:49:02 13.7 C 9.12 g/m*3 13.7 C 0 km/h
131 13-11-2010 02:01:02 13.8 C 9.29 g/m*3 13.8 C 0 km/h
132 13-11-2010 02:13:02 13.6 C 9.18 g/m*3 13.6 C 0 km/h
133 13-11-2010 02:25:02 14 C 9.29 g/m*3 14 C 0 km/h
134 13-11-2010 02:37:02 13.9 C 9.35 g/m*3 13.9 C 0 km/h
135 13-11-2010 02:49:01 13.6 C 9.3 g/m*3 13.6 C 0 km/h
136 13-11-2010 03:01:01 13.9 C 9.47 g/m*3 13.9 C 0 km/h
137 13-11-2010 03:13:01 14 C 9.41 g/m*3 14 C 0 km/h
138 13-11-2010 03:25:02 14.2 C 9.28 g/m*3 14.2 C 0 km/h
139 13-11-2010 03:37:01 14.5 C 9.2 g/m*3 14.5 C 0 km/h
140 13-11-2010 03:49:01 14.4 C 9.27 g/m*3 14.4 C 0 km/h
141 13-11-2010 04:01:02 14.3 C 9.21 g/m*3 14.3 C 0 km/h
142 13-11-2010 04:13:02 14.3 C 9.21 g/m*3 14.3 C 0 km/h
143 13-11-2010 04:25:01 13.9 C 9.23 g/m*3 13.9 C 0 km/h
144 13-11-2010 04:37:01 13.9 C 9.35 g/m*3 13.9 C 0 km/h
145 13-11-2010 04:49:01 14.3 C 9.21 g/m*3 14.3 C 0 km/h
146 13-11-2010 05:01:01 14.5 C 9.2 g/m*3 14.5 C 0 km/h
147 13-11-2010 05:13:01 14.4 C 9.15 g/m*3 14.4 C 0 km/h
148 13-11-2010 05:25:01 14.4 C 9.02 g/m*3 14.4 C 0 km/h
149 13-11-2010 05:37:01 14.6 C 9.13 g/m*3 14.6 C 0 km/h
150 13-11-2010 05:49:01 14.6 C 9.01 g/m*3 14.6 C 0 km/h
Sensor: Nr:Datum:Temp:Abs-Feuchte:Windchill:Wind:
Aussen-T/F 151 13-11-2010 06:01:01 14.5 C 8.95 g/m*3 14.5 C 0 km/h
152 13-11-2010 06:13:01 14.7 C 9.07 g/m*3 14.7 C 0 km/h
153 13-11-2010 06:25:02 14.6 C 9.13 g/m*3 14.6 C 0 km/h
154 13-11-2010 06:37:01 14.7 C 9.07 g/m*3 14.7 C 0 km/h
155 13-11-2010 06:49:02 14.6 C 9.01 g/m*3 14.6 C 0 km/h
156 13-11-2010 07:01:01 14.7 C 9.07 g/m*3 14.7 C 0 km/h
157 13-11-2010 07:13:01 14.8 C 8.99 g/m*3 14.8 C 0 km/h
158 13-11-2010 07:25:01 14.7 C 8.94 g/m*3 14.7 C 0 km/h
159 13-11-2010 07:37:01 14.7 C 8.94 g/m*3 14.7 C 0 km/h
160 13-11-2010 07:49:01 14.7 C 9.07 g/m*3 14.7 C 0 km/h
161 13-11-2010 08:01:01 14.6 C 9.01 g/m*3 14.6 C 0 km/h
162 13-11-2010 08:13:01 14.7 C 9.07 g/m*3 14.7 C 0 km/h
163 13-11-2010 08:25:01 14.9 C 8.92 g/m*3 14.9 C 0 km/h
164 13-11-2010 08:37:02 14.7 C 8.94 g/m*3 14.7 C 0 km/h
165 13-11-2010 08:49:01 14.7 C 9.07 g/m*3 14.7 C 0 km/h
166 13-11-2010 09:01:02 14.2 C 9.04 g/m*3 14.2 C 0 km/h
167 13-11-2010 09:13:02 14.1 C 9.22 g/m*3 14.1 C 0 km/h
168 13-11-2010 09:25:01 14.2 C 9.16 g/m*3 14.2 C 0 km/h
169 13-11-2010 09:37:01 14.2 C 9.16 g/m*3 14.2 C 0 km/h
170 13-11-2010 09:49:01 14.2 C 9.16 g/m*3 14.2 C 0 km/h
171 13-11-2010 10:01:02 14 C 9.05 g/m*3 14 C 0 km/h
172 13-11-2010 10:13:02 14 C 9.29 g/m*3 14 C 0 km/h
173 13-11-2010 10:25:01 14.2 C 9.28 g/m*3 14.2 C 0 km/h
174 13-11-2010 10:37:01 14.6 C 9.26 g/m*3 14.6 C 0 km/h
175 13-11-2010 10:49:01 14.8 C 9.25 g/m*3 14.8 C 0 km/h
Sensor: Nr:Datum:Temp:Abs-Feuchte:Windchill:Wind:
Aussen-T/F 176 13-11-2010 11:01:01 14.7 C 9.07 g/m*3 14.7 C 0 km/h
177 13-11-2010 11:13:01 14.8 C 9.12 g/m*3 14.8 C 0 km/h
178 13-11-2010 11:25:02 14.6 C 9.01 g/m*3 14.6 C 0 km/h
179 13-11-2010 11:37:01 14.7 C 9.07 g/m*3 14.7 C 0 km/h
180 13-11-2010 11:49:02 15 C 8.72 g/m*3 15 C 0 km/h
181 13-11-2010 12:01:01 15.2 C 8.7 g/m*3 15.2 C 0 km/h
182 13-11-2010 12:13:01 14.8 C 8.74 g/m*3 14.8 C 0 km/h
183 13-11-2010 12:25:02 14.6 C 8.88 g/m*3 14.6 C 0 km/h
184 13-11-2010 12:37:01 14.7 C 8.94 g/m*3 14.7 C 0 km/h
185 13-11-2010 12:49:02 14.7 C 8.94 g/m*3 14.7 C 0 km/h
186 13-11-2010 13:01:01 14.5 C 8.95 g/m*3 14.5 C 0 km/h
187 13-11-2010 13:13:01 14.8 C 8.87 g/m*3 14.8 C 0 km/h
188 13-11-2010 13:25:01 15.1 C 8.77 g/m*3 15.1 C 0 km/h
189 13-11-2010 13:37:02 14.9 C 8.79 g/m*3 14.9 C 0 km/h
190 13-11-2010 13:49:01 14.5 C 8.83 g/m*3 14.5 C 0 km/h
191 13-11-2010 14:01:02 14.7 C 8.81 g/m*3 14.7 C 0 km/h
192 13-11-2010 14:13:02 14.8 C 8.61 g/m*3 14.8 C 0 km/h
193 13-11-2010 14:25:01 14.9 C 8.67 g/m*3 14.9 C 0 km/h
194 13-11-2010 14:37:02 14.8 C 8.61 g/m*3 14.8 C 0 km/h
195 13-11-2010 14:49:01 14.7 C 8.69 g/m*3 14.7 C 0 km/h
196 13-11-2010 15:01:02 14.8 C 8.61 g/m*3 14.8 C 0 km/h
197 13-11-2010 15:13:02 14.7 C 8.56 g/m*3 14.7 C 0 km/h
198 13-11-2010 15:25:01 14.7 C 8.56 g/m*3 14.7 C 0 km/h
199 13-11-2010 15:37:02 15 C 8.46 g/m*3 15 C 0 km/h
200 13-11-2010 15:49:01 14.9 C 8.54 g/m*3 14.9 C 0 km/h
Sensor: Nr:Datum:Temp:Abs-Feuchte:Windchill:Wind:
Aussen-T/F 201 13-11-2010 16:01:01 14.7 C 8.56 g/m*3 14.7 C 0 km/h
202 13-11-2010 16:13:01 14.6 C 8.76 g/m*3 14.6 C 0 km/h
203 13-11-2010 16:25:02 14.7 C 8.69 g/m*3 14.7 C 0 km/h
204 13-11-2010 16:37:01 14.7 C 8.69 g/m*3 14.7 C 0 km/h
205 13-11-2010 16:49:02 14.7 C 8.69 g/m*3 14.7 C 0 km/h
206 13-11-2010 17:01:01 14.6 C 8.63 g/m*3 14.6 C 0 km/h
207 13-11-2010 17:13:01 14.3 C 8.72 g/m*3 14.3 C 0 km/h
208 13-11-2010 17:25:01 14 C 8.81 g/m*3 14 C 0 km/h
209 13-11-2010 17:37:01 14 C 8.81 g/m*3 14 C 0 km/h
210 13-11-2010 17:49:01 14.4 C 8.78 g/m*3 14.4 C 0 km/h
211 13-11-2010 18:01:01 14.7 C 8.81 g/m*3 14.7 C 0 km/h
212 13-11-2010 18:13:01 14.5 C 8.71 g/m*3 14.5 C 0 km/h
213 13-11-2010 18:25:01 14.5 C 8.71 g/m*3 14.5 C 0 km/h
214 13-11-2010 18:37:02 14.7 C 8.69 g/m*3 14.7 C 0 km/h
215 13-11-2010 18:49:01 15 C 8.59 g/m*3 15 C 0 km/h
216 13-11-2010 19:01:02 14.7 C 8.56 g/m*3 14.7 C 0 km/h
217 13-11-2010 19:13:02 14.8 C 8.61 g/m*3 14.8 C 0 km/h
218 13-11-2010 19:25:01 14.9 C 8.54 g/m*3 14.9 C 0 km/h
219 13-11-2010 19:37:02 15.1 C 8.51 g/m*3 15.1 C 0 km/h
220 13-11-2010 19:49:01 15.2 C 8.31 g/m*3 15.2 C 0 km/h
221 13-11-2010 20:01:02 15.3 C 8.23 g/m*3 15.3 C 0 km/h
222 13-11-2010 20:13:02 15.2 C 8.18 g/m*3 15.2 C 0 km/h
223 13-11-2010 20:25:01 15.1 C 8.26 g/m*3 15.1 C 0 km/h
224 13-11-2010 20:37:02 14.8 C 8.36 g/m*3 14.8 C 0 km/h
225 13-11-2010 20:49:01 14.6 C 8.38 g/m*3 14.6 C 0 km/h
Sensor: Nr:Datum:Temp:Abs-Feuchte:Windchill:Wind:
Aussen-T/F 226 13-11-2010 21:01:02 14.4 C 8.53 g/m*3 14.4 C 0 km/h
227 13-11-2010 21:13:02 14.3 C 8.35 g/m*3 14.3 C 0 km/h
228 13-11-2010 21:25:01 14.5 C 8.46 g/m*3 14.5 C 0 km/h
229 13-11-2010 21:37:01 14.5 C 8.33 g/m*3 14.5 C 0 km/h
230 13-11-2010 21:49:01 14.9 C 8.28 g/m*3 14.9 C 0 km/h
231 13-11-2010 22:01:02 14.8 C 8.23 g/m*3 14.8 C 0 km/h
232 13-11-2010 22:13:02 14.8 C 8.23 g/m*3 14.8 C 0 km/h
233 13-11-2010 22:25:01 15.1 C 8 g/m*3 15.1 C 0 km/h
234 13-11-2010 22:37:02 14.8 C 8.11 g/m*3 14.8 C 0 km/h
235 13-11-2010 22:49:01 14.8 C 7.98 g/m*3 14.8 C 0 km/h
236 13-11-2010 23:02:07 14.7 C 8.06 g/m*3 14.7 C 0 km/h
237 13-11-2010 23:14:07 15.2 C 7.92 g/m*3 15.2 C 0 km/h
238 13-11-2010 23:26:07 14.8 C 8.11 g/m*3 14.8 C 0 km/h
239 13-11-2010 23:38:07 14.6 C 8.01 g/m*3 14.6 C 0 km/h
240 13-11-2010 23:50:07 14.4 C 8.16 g/m*3 14.4 C 0 km/h

Legende:
   Min
   Max


Maximal/Minimal-Werte vom 14.04.2020 - 16.05.2020

Sensor Min Max Avg
Temp
(Aussen-T/F)
-0.1 °C
15-04-2020  06:55:00
26.2 °C
17-04-2020  18:05:00
11.98 °C

Die Daten stammen von einer Davis Vantage Pro 2 Wetter-Station und werden unter Linux mit der Software wview2wettercgi und aufbereitet. Alle Angaben erfolgen ohne Gewähr für ihre Vollständigkeit oder Richtigkeit.
Kontakt: Rainer Krienke krienke@uni-koblenz.de . Meine Webseiten an der Uni Koblenz oder privat.
Version: $Revision: 0.78 $